Saint-Leonard, Canada
Current Conditions -  °F | °C
As of 6:00 PM on Saturday 25 Oct 2014 (Local Time) from CYHU Reporting Station
Moderate Rain Moderate Rain  
Wind Chill: 50°   Ceiling: 4500
Heat Index: 50°   Visibility: 5mi
Dew Point: 46°   Wind: 10mph
Humidity: 87%   Direction: 150°SSE
Pressure: 29.47"   Gusts: NA
Location:  45.58°N, 73.6°W
Report Text: CYHU 252200Z AUTO 15009KT 5SM RA BR SCT033 BKN045 OVC060 10/08 A2947 RMK PCPN 1.8MM PAST HR SLP981
Loading
Personal Weather Stations






























Interactive Weather Map
Tropical Storm Tracking
New forecast layout! Learn more

10-Day Weather Forecast

Advertisements
Track Severe Weather on mobile